Aérodrome :
LOGIN :

S'inscrire | Disclaimer

   EN    FR    IT 

 










Légende :    VFR   VFR Marginal   IFR   IFR Intensif   IFR Très Intensif
Visi : 
Plafond : 
>= 8 km
>= 3000ft
5 à 8 km
1000 à 3000 ft
1500m à 5 km
500 à 1000 ft
800 à 1500m
200 à 500 ft
< 800m
< 200 ft
Symboles :   Orages  Brouillard  Fortes neiges  Fortes précipitations  Vent > 20 kt
SIGMETs :   Divers  Orages  Givrage  Turbulence  Onde Orograph.  Cendres Volcan.






- Altitude de l'aérodrome : 600 ft
- Code IATA : VIE


LOWW - Vienna Schwechat

DERNIER METAR :
  • 140920Z 11012KT 9999 FEW015 SCT036 BKN300 06/03 Q1011 NOSIG

METARs EXPIRÉS :
  • 140850Z 12012KT 9999 FEW015 SCT036 BKN300 05/03 Q1011 NOSIG
  • 140820Z 12011KT 9999 FEW015 BKN300 05/02 Q1011 NOSIG
  • 140750Z 13009KT 9999 FEW015 SCT046 05/02 Q1011 NOSIG
  • 140720Z 12006KT 9999 FEW015 SCT046 03/01 Q1011 NOSIG
  • 140650Z 10002KT 9999 FEW015 SCT300 02/01 Q1011 NOSIG

TAF TAF LOWW
Valide du 14 à 09h jusqu'au 15 à 15h UTC


140815Z 1409/1515 14010KT CAVOK TX10/1513Z TN04/1409Z
TEMPO 1410/1415 15017KT
BECMG 1503/1505 9000 FEW005 BKN012
TEMPO 1505/1509 SCT005 BKN008
PROB30
TEMPO 1505/1509 5000 BR BKN005
TEMPO 1511/1515 15020G30KT 9999 SCT020



MET'MAP, la Météo Aéronautique d'un coup d'oeil ! - Copyright ORBIFLY Décembre 2007 - Disclaimer

ORBIFLY MET'MAP TEAM :

Programmation & Développement : Alexandra Zaïnal
Conception & Développement : Baudouin d'Aumeries
Co-Programmation & Développement : Marc-Olivier Méhu
Soutien technique & logistique : Manuel Goepfert

Contact : metmap@orbifly.com




SOURCES & CREDITS :

   NOAA